sensor_id;sensor_type;location;lat;lon;timestamp;P1;durP1;ratioP1;P2;durP2;ratioP2
45944;SDS011;31655;48.972;10.686;2023-05-10T00:00:52;16.77;;;11.82;;
45944;SDS011;31655;48.972;10.686;2023-05-10T00:03:18;19.77;;;11.73;;
45944;SDS011;31655;48.972;10.686;2023-05-10T00:05:43;17.52;;;10.57;;
45944;SDS011;31655;48.972;10.686;2023-05-10T00:08:09;21.60;;;11.05;;
45944;SDS011;31655;48.972;10.686;2023-05-10T00:10:35;16.15;;;10.52;;
45944;SDS011;31655;48.972;10.686;2023-05-10T00:13:02;18.48;;;11.30;;
45944;SDS011;31655;48.972;10.686;2023-05-10T00:15:28;15.60;;;9.80;;
45944;SDS011;31655;48.972;10.686;2023-05-10T00:17:55;16.60;;;9.52;;
45944;SDS011;31655;48.972;10.686;2023-05-10T00:20:21;14.13;;;9.23;;
45944;SDS011;31655;48.972;10.686;2023-05-10T00:22:47;13.10;;;9.02;;
45944;SDS011;31655;48.972;10.686;2023-05-10T00:25:13;13.30;;;9.60;;
45944;SDS011;31655;48.972;10.686;2023-05-10T00:27:39;15.20;;;9.63;;
45944;SDS011;31655;48.972;10.686;2023-05-10T00:30:05;13.80;;;8.80;;
45944;SDS011;31655;48.972;10.686;2023-05-10T00:32:31;16.00;;;9.98;;
45944;SDS011;31655;48.972;10.686;2023-05-10T00:34:57;15.05;;;8.90;;
45944;SDS011;31655;48.972;10.686;2023-05-10T00:37:23;14.10;;;10.48;;
45944;SDS011;31655;48.972;10.686;2023-05-10T00:39:49;15.50;;;10.23;;
45944;SDS011;31655;48.972;10.686;2023-05-10T00:42:15;13.90;;;9.60;;
45944;SDS011;31655;48.972;10.686;2023-05-10T00:44:41;14.02;;;10.02;;
45944;SDS011;31655;48.972;10.686;2023-05-10T00:47:07;13.05;;;8.85;;
45944;SDS011;31655;48.972;10.686;2023-05-10T00:49:34;14.23;;;9.85;;
45944;SDS011;31655;48.972;10.686;2023-05-10T00:52:00;15.40;;;9.18;;
45944;SDS011;31655;48.972;10.686;2023-05-10T00:54:26;12.50;;;9.18;;
45944;SDS011;31655;48.972;10.686;2023-05-10T00:56:52;13.32;;;9.48;;
45944;SDS011;31655;48.972;10.686;2023-05-10T00:59:18;14.73;;;9.65;;
45944;SDS011;31655;48.972;10.686;2023-05-10T01:01:45;13.02;;;9.23;;
45944;SDS011;31655;48.972;10.686;2023-05-10T01:04:14;14.13;;;9.38;;
45944;SDS011;31655;48.972;10.686;2023-05-10T01:06:40;14.45;;;9.73;;
45944;SDS011;31655;48.972;10.686;2023-05-10T01:09:06;13.73;;;10.70;;
45944;SDS011;31655;48.972;10.686;2023-05-10T01:11:33;13.60;;;9.95;;
45944;SDS011;31655;48.972;10.686;2023-05-10T01:14:01;15.02;;;9.82;;
45944;SDS011;31655;48.972;10.686;2023-05-10T01:16:27;14.02;;;10.77;;
45944;SDS011;31655;48.972;10.686;2023-05-10T01:18:57;12.18;;;9.50;;
45944;SDS011;31655;48.972;10.686;2023-05-10T01:26:54;15.52;;;10.82;;
45944;SDS011;31655;48.972;10.686;2023-05-10T01:35:03;14.63;;;10.20;;
45944;SDS011;31655;48.972;10.686;2023-05-10T01:38:38;12.05;;;9.63;;
45944;SDS011;31655;48.972;10.686;2023-05-10T01:44:02;13.10;;;10.15;;
45944;SDS011;31655;48.972;10.686;2023-05-10T01:46:36;13.75;;;10.20;;
45944;SDS011;31655;48.972;10.686;2023-05-10T01:49:03;9.68;;;7.75;;
45944;SDS011;31655;48.972;10.686;2023-05-10T01:52:08;8.73;;;6.47;;
45944;SDS011;31655;48.972;10.686;2023-05-10T01:54:31;6.40;;;4.90;;
45944;SDS011;31655;48.972;10.686;2023-05-10T01:56:59;5.70;;;4.43;;
45944;SDS011;31655;48.972;10.686;2023-05-10T01:59:30;5.97;;;3.47;;
45944;SDS011;31655;48.972;10.686;2023-05-10T02:01:57;6.15;;;3.20;;
45944;SDS011;31655;48.972;10.686;2023-05-10T02:04:24;4.25;;;1.80;;
45944;SDS011;31655;48.972;10.686;2023-05-10T02:06:51;2.72;;;2.17;;
45944;SDS011;31655;48.972;10.686;2023-05-10T02:09:18;2.75;;;1.80;;
45944;SDS011;31655;48.972;10.686;2023-05-10T02:11:45;2.00;;;1.80;;
45944;SDS011;31655;48.972;10.686;2023-05-10T02:14:13;3.40;;;1.70;;
45944;SDS011;31655;48.972;10.686;2023-05-10T02:16:41;2.42;;;1.40;;
45944;SDS011;31655;48.972;10.686;2023-05-10T02:19:08;1.67;;;1.30;;
45944;SDS011;31655;48.972;10.686;2023-05-10T02:21:36;2.22;;;1.85;;
45944;SDS011;31655;48.972;10.686;2023-05-10T02:24:04;2.50;;;1.60;;
45944;SDS011;31655;48.972;10.686;2023-05-10T02:26:31;1.63;;;1.40;;
45944;SDS011;31655;48.972;10.686;2023-05-10T02:29:01;2.13;;;1.50;;
45944;SDS011;31655;48.972;10.686;2023-05-10T02:31:28;2.03;;;1.35;;
45944;SDS011;31655;48.972;10.686;2023-05-10T02:33:56;1.30;;;1.20;;
45944;SDS011;31655;48.972;10.686;2023-05-10T02:36:23;3.33;;;1.60;;
45944;SDS011;31655;48.972;10.686;2023-05-10T02:38:49;1.40;;;1.30;;
45944;SDS011;31655;48.972;10.686;2023-05-10T02:41:17;1.30;;;1.20;;
45944;SDS011;31655;48.972;10.686;2023-05-10T02:43:43;2.17;;;1.50;;
45944;SDS011;31655;48.972;10.686;2023-05-10T02:46:09;2.60;;;1.52;;
45944;SDS011;31655;48.972;10.686;2023-05-10T02:48:36;2.17;;;1.10;;
45944;SDS011;31655;48.972;10.686;2023-05-10T02:51:04;1.80;;;1.10;;
45944;SDS011;31655;48.972;10.686;2023-05-10T02:53:33;1.83;;;1.30;;
45944;SDS011;31655;48.972;10.686;2023-05-10T02:56:04;1.88;;;1.23;;
45944;SDS011;31655;48.972;10.686;2023-05-10T02:58:33;1.38;;;1.20;;
45944;SDS011;31655;48.972;10.686;2023-05-10T03:00:59;2.13;;;1.20;;
45944;SDS011;31655;48.972;10.686;2023-05-10T03:03:25;2.65;;;1.00;;
45944;SDS011;31655;48.972;10.686;2023-05-10T03:05:51;1.67;;;1.10;;
45944;SDS011;31655;48.972;10.686;2023-05-10T03:08:20;1.38;;;1.02;;
45944;SDS011;31655;48.972;10.686;2023-05-10T03:11:01;1.30;;;0.98;;
45944;SDS011;31655;48.972;10.686;2023-05-10T03:14:26;1.15;;;0.93;;
45944;SDS011;31655;48.972;10.686;2023-05-10T03:16:46;0.73;;;0.60;;
45944;SDS011;31655;48.972;10.686;2023-05-10T03:19:24;1.13;;;0.80;;
45944;SDS011;31655;48.972;10.686;2023-05-10T03:21:54;2.05;;;0.73;;
45944;SDS011;31655;48.972;10.686;2023-05-10T03:24:24;1.35;;;0.75;;
45944;SDS011;31655;48.972;10.686;2023-05-10T03:26:53;1.65;;;0.70;;
45944;SDS011;31655;48.972;10.686;2023-05-10T03:29:21;1.05;;;0.88;;
45944;SDS011;31655;48.972;10.686;2023-05-10T03:31:49;1.45;;;0.90;;
45944;SDS011;31655;48.972;10.686;2023-05-10T03:34:14;3.53;;;0.68;;
45944;SDS011;31655;48.972;10.686;2023-05-10T03:36:41;1.90;;;0.90;;
45944;SDS011;31655;48.972;10.686;2023-05-10T03:39:06;2.38;;;1.02;;
45944;SDS011;31655;48.972;10.686;2023-05-10T03:41:32;1.70;;;0.88;;
45944;SDS011;31655;48.972;10.686;2023-05-10T03:44:00;1.38;;;1.00;;
45944;SDS011;31655;48.972;10.686;2023-05-10T03:46:26;0.88;;;0.82;;
45944;SDS011;31655;48.972;10.686;2023-05-10T03:48:52;1.20;;;1.10;;
45944;SDS011;31655;48.972;10.686;2023-05-10T03:51:17;1.08;;;0.98;;
45944;SDS011;31655;48.972;10.686;2023-05-10T03:53:43;1.20;;;0.95;;
45944;SDS011;31655;48.972;10.686;2023-05-10T03:56:09;0.70;;;0.70;;
45944;SDS011;31655;48.972;10.686;2023-05-10T03:58:35;1.90;;;0.60;;
45944;SDS011;31655;48.972;10.686;2023-05-10T04:01:02;1.02;;;0.63;;
45944;SDS011;31655;48.972;10.686;2023-05-10T04:03:28;1.10;;;0.90;;
45944;SDS011;31655;48.972;10.686;2023-05-10T04:06:02;0.85;;;0.82;;
45944;SDS011;31655;48.972;10.686;2023-05-10T04:08:28;2.00;;;0.70;;
45944;SDS011;31655;48.972;10.686;2023-05-10T04:10:54;1.00;;;0.90;;
45944;SDS011;31655;48.972;10.686;2023-05-10T04:13:20;1.88;;;1.00;;
45944;SDS011;31655;48.972;10.686;2023-05-10T04:15:46;1.10;;;1.00;;
45944;SDS011;31655;48.972;10.686;2023-05-10T04:18:11;1.17;;;1.08;;
45944;SDS011;31655;48.972;10.686;2023-05-10T04:20:37;1.20;;;1.10;;
45944;SDS011;31655;48.972;10.686;2023-05-10T04:23:03;3.65;;;1.00;;
45944;SDS011;31655;48.972;10.686;2023-05-10T04:25:29;2.03;;;1.25;;
45944;SDS011;31655;48.972;10.686;2023-05-10T04:27:55;1.67;;;1.50;;
45944;SDS011;31655;48.972;10.686;2023-05-10T04:30:21;1.40;;;1.30;;
45944;SDS011;31655;48.972;10.686;2023-05-10T04:32:47;1.33;;;1.23;;
45944;SDS011;31655;48.972;10.686;2023-05-10T04:35:13;1.45;;;1.35;;
45944;SDS011;31655;48.972;10.686;2023-05-10T04:37:39;1.60;;;1.30;;
45944;SDS011;31655;48.972;10.686;2023-05-10T04:40:05;2.15;;;1.73;;
45944;SDS011;31655;48.972;10.686;2023-05-10T04:42:31;4.22;;;2.15;;
45944;SDS011;31655;48.972;10.686;2023-05-10T04:44:57;1.90;;;1.70;;
45944;SDS011;31655;48.972;10.686;2023-05-10T04:47:23;2.60;;;1.80;;
45944;SDS011;31655;48.972;10.686;2023-05-10T04:49:49;1.70;;;1.60;;
45944;SDS011;31655;48.972;10.686;2023-05-10T04:52:15;2.67;;;1.77;;
45944;SDS011;31655;48.972;10.686;2023-05-10T04:54:42;1.88;;;1.40;;
45944;SDS011;31655;48.972;10.686;2023-05-10T04:57:08;1.70;;;1.60;;
45944;SDS011;31655;48.972;10.686;2023-05-10T04:59:35;2.33;;;1.70;;
45944;SDS011;31655;48.972;10.686;2023-05-10T05:02:01;1.85;;;1.63;;
45944;SDS011;31655;48.972;10.686;2023-05-10T05:04:29;1.95;;;1.75;;
45944;SDS011;31655;48.972;10.686;2023-05-10T05:06:56;2.05;;;1.83;;
45944;SDS011;31655;48.972;10.686;2023-05-10T05:09:21;1.85;;;1.60;;
45944;SDS011;31655;48.972;10.686;2023-05-10T05:11:47;1.60;;;1.45;;
45944;SDS011;31655;48.972;10.686;2023-05-10T05:14:13;3.67;;;2.17;;
45944;SDS011;31655;48.972;10.686;2023-05-10T05:16:39;1.75;;;1.65;;
45944;SDS011;31655;48.972;10.686;2023-05-10T05:19:05;1.77;;;1.60;;
45944;SDS011;31655;48.972;10.686;2023-05-10T05:21:31;2.13;;;1.70;;
45944;SDS011;31655;48.972;10.686;2023-05-10T05:23:57;2.50;;;1.65;;
45944;SDS011;31655;48.972;10.686;2023-05-10T05:26:23;3.03;;;1.73;;
45944;SDS011;31655;48.972;10.686;2023-05-10T05:28:49;3.15;;;1.77;;
45944;SDS011;31655;48.972;10.686;2023-05-10T05:31:19;1.63;;;1.50;;
45944;SDS011;31655;48.972;10.686;2023-05-10T05:33:45;4.18;;;1.77;;
45944;SDS011;31655;48.972;10.686;2023-05-10T05:36:11;2.15;;;1.77;;
45944;SDS011;31655;48.972;10.686;2023-05-10T05:38:37;2.47;;;1.90;;
45944;SDS011;31655;48.972;10.686;2023-05-10T05:41:03;2.55;;;1.98;;
45944;SDS011;31655;48.972;10.686;2023-05-10T05:43:29;1.90;;;1.67;;
45944;SDS011;31655;48.972;10.686;2023-05-10T05:45:55;3.55;;;2.00;;
45944;SDS011;31655;48.972;10.686;2023-05-10T05:48:22;3.45;;;1.88;;
45944;SDS011;31655;48.972;10.686;2023-05-10T05:50:48;2.22;;;1.63;;
45944;SDS011;31655;48.972;10.686;2023-05-10T05:53:15;3.15;;;1.83;;
45944;SDS011;31655;48.972;10.686;2023-05-10T05:55:50;3.65;;;1.77;;
45944;SDS011;31655;48.972;10.686;2023-05-10T05:58:20;2.10;;;1.33;;
45944;SDS011;31655;48.972;10.686;2023-05-10T06:00:46;3.22;;;1.73;;
45944;SDS011;31655;48.972;10.686;2023-05-10T06:03:12;4.05;;;3.38;;
45944;SDS011;31655;48.972;10.686;2023-05-10T06:05:37;4.50;;;3.50;;
45944;SDS011;31655;48.972;10.686;2023-05-10T06:08:03;3.28;;;1.80;;
45944;SDS011;31655;48.972;10.686;2023-05-10T06:10:29;2.17;;;1.80;;
45944;SDS011;31655;48.972;10.686;2023-05-10T06:12:55;3.00;;;1.88;;
45944;SDS011;31655;48.972;10.686;2023-05-10T06:15:21;2.65;;;2.00;;
45944;SDS011;31655;48.972;10.686;2023-05-10T06:17:47;4.00;;;2.35;;
45944;SDS011;31655;48.972;10.686;2023-05-10T06:20:14;3.58;;;2.13;;
45944;SDS011;31655;48.972;10.686;2023-05-10T06:22:40;2.75;;;2.50;;
45944;SDS011;31655;48.972;10.686;2023-05-10T06:25:07;3.83;;;3.05;;
45944;SDS011;31655;48.972;10.686;2023-05-10T06:27:33;3.45;;;2.67;;
45944;SDS011;31655;48.972;10.686;2023-05-10T06:29:58;3.22;;;2.92;;
45944;SDS011;31655;48.972;10.686;2023-05-10T06:32:24;3.20;;;2.90;;
45944;SDS011;31655;48.972;10.686;2023-05-10T06:34:50;3.35;;;2.97;;
45944;SDS011;31655;48.972;10.686;2023-05-10T06:37:16;8.05;;;2.95;;
45944;SDS011;31655;48.972;10.686;2023-05-10T06:39:42;3.00;;;2.70;;
45944;SDS011;31655;48.972;10.686;2023-05-10T06:42:09;3.15;;;2.83;;
45944;SDS011;31655;48.972;10.686;2023-05-10T06:44:34;6.25;;;2.67;;
45944;SDS011;31655;48.972;10.686;2023-05-10T06:47:00;2.90;;;2.50;;
45944;SDS011;31655;48.972;10.686;2023-05-10T06:49:26;4.25;;;2.92;;
45944;SDS011;31655;48.972;10.686;2023-05-10T06:51:52;4.57;;;2.92;;
45944;SDS011;31655;48.972;10.686;2023-05-10T06:54:18;3.85;;;2.70;;
45944;SDS011;31655;48.972;10.686;2023-05-10T06:56:44;4.13;;;2.85;;
45944;SDS011;31655;48.972;10.686;2023-05-10T06:59:10;3.35;;;3.05;;
45944;SDS011;31655;48.972;10.686;2023-05-10T07:01:38;3.53;;;2.85;;
45944;SDS011;31655;48.972;10.686;2023-05-10T07:04:04;3.08;;;2.78;;
45944;SDS011;31655;48.972;10.686;2023-05-10T07:06:30;4.05;;;2.65;;
45944;SDS011;31655;48.972;10.686;2023-05-10T07:08:56;3.50;;;2.55;;
45944;SDS011;31655;48.972;10.686;2023-05-10T07:11:22;3.55;;;2.97;;
45944;SDS011;31655;48.972;10.686;2023-05-10T07:13:48;2.85;;;2.42;;
45944;SDS011;31655;48.972;10.686;2023-05-10T07:16:14;3.17;;;2.50;;
45944;SDS011;31655;48.972;10.686;2023-05-10T07:18:40;2.85;;;2.53;;
45944;SDS011;31655;48.972;10.686;2023-05-10T07:21:06;6.25;;;2.45;;
45944;SDS011;31655;48.972;10.686;2023-05-10T07:23:32;3.60;;;2.05;;
45944;SDS011;31655;48.972;10.686;2023-05-10T07:25:58;2.38;;;1.88;;
45944;SDS011;31655;48.972;10.686;2023-05-10T07:28:24;4.07;;;2.05;;
45944;SDS011;31655;48.972;10.686;2023-05-10T07:30:50;4.57;;;2.20;;
45944;SDS011;31655;48.972;10.686;2023-05-10T07:33:16;2.33;;;1.73;;
45944;SDS011;31655;48.972;10.686;2023-05-10T07:35:42;2.80;;;1.80;;
45944;SDS011;31655;48.972;10.686;2023-05-10T07:38:08;2.38;;;1.58;;
45944;SDS011;31655;48.972;10.686;2023-05-10T07:40:36;2.90;;;1.67;;
45944;SDS011;31655;48.972;10.686;2023-05-10T07:43:02;2.50;;;1.63;;
45944;SDS011;31655;48.972;10.686;2023-05-10T07:45:28;3.20;;;1.52;;
45944;SDS011;31655;48.972;10.686;2023-05-10T07:47:54;3.17;;;1.70;;
45944;SDS011;31655;48.972;10.686;2023-05-10T07:50:20;1.98;;;1.60;;
45944;SDS011;31655;48.972;10.686;2023-05-10T07:52:46;2.47;;;1.67;;
45944;SDS011;31655;48.972;10.686;2023-05-10T07:55:12;2.90;;;2.17;;
45944;SDS011;31655;48.972;10.686;2023-05-10T07:57:38;2.28;;;1.58;;
45944;SDS011;31655;48.972;10.686;2023-05-10T08:00:05;2.65;;;1.70;;
45944;SDS011;31655;48.972;10.686;2023-05-10T08:02:32;1.98;;;1.35;;
45944;SDS011;31655;48.972;10.686;2023-05-10T08:04:58;2.00;;;1.48;;
45944;SDS011;31655;48.972;10.686;2023-05-10T08:07:24;1.17;;;1.08;;
45944;SDS011;31655;48.972;10.686;2023-05-10T08:09:50;1.55;;;1.45;;
45944;SDS011;31655;48.972;10.686;2023-05-10T08:12:16;1.98;;;1.30;;
45944;SDS011;31655;48.972;10.686;2023-05-10T08:14:42;2.85;;;1.27;;
45944;SDS011;31655;48.972;10.686;2023-05-10T08:17:08;2.17;;;1.50;;
45944;SDS011;31655;48.972;10.686;2023-05-10T08:19:34;2.50;;;1.50;;
45944;SDS011;31655;48.972;10.686;2023-05-10T08:21:59;2.63;;;1.75;;
45944;SDS011;31655;48.972;10.686;2023-05-10T08:24:25;1.65;;;1.20;;
45944;SDS011;31655;48.972;10.686;2023-05-10T08:26:51;0.93;;;0.93;;
45944;SDS011;31655;48.972;10.686;2023-05-10T08:29:17;2.25;;;0.95;;
45944;SDS011;31655;48.972;10.686;2023-05-10T08:31:43;2.42;;;1.00;;
45944;SDS011;31655;48.972;10.686;2023-05-10T08:34:08;1.08;;;0.98;;
45944;SDS011;31655;48.972;10.686;2023-05-10T08:36:34;2.80;;;1.17;;
45944;SDS011;31655;48.972;10.686;2023-05-10T08:39:01;1.73;;;1.10;;
45944;SDS011;31655;48.972;10.686;2023-05-10T08:41:27;2.33;;;1.27;;
45944;SDS011;31655;48.972;10.686;2023-05-10T08:43:53;1.48;;;1.05;;
45944;SDS011;31655;48.972;10.686;2023-05-10T08:46:20;5.20;;;1.20;;
45944;SDS011;31655;48.972;10.686;2023-05-10T08:48:46;2.08;;;1.13;;
45944;SDS011;31655;48.972;10.686;2023-05-10T08:51:13;1.50;;;0.98;;
45944;SDS011;31655;48.972;10.686;2023-05-10T08:53:40;0.93;;;0.82;;
45944;SDS011;31655;48.972;10.686;2023-05-10T08:56:05;2.20;;;1.25;;
45944;SDS011;31655;48.972;10.686;2023-05-10T08:58:31;2.15;;;1.00;;
45944;SDS011;31655;48.972;10.686;2023-05-10T09:00:58;3.00;;;1.10;;
45944;SDS011;31655;48.972;10.686;2023-05-10T09:03:25;4.00;;;0.88;;
45944;SDS011;31655;48.972;10.686;2023-05-10T09:05:51;2.40;;;0.90;;
45944;SDS011;31655;48.972;10.686;2023-05-10T09:08:17;3.90;;;1.17;;
45944;SDS011;31655;48.972;10.686;2023-05-10T09:10:44;3.35;;;1.60;;
45944;SDS011;31655;48.972;10.686;2023-05-10T09:13:12;1.90;;;1.35;;
45944;SDS011;31655;48.972;10.686;2023-05-10T09:15:38;6.57;;;1.35;;
45944;SDS011;31655;48.972;10.686;2023-05-10T09:18:04;3.47;;;1.90;;
45944;SDS011;31655;48.972;10.686;2023-05-10T09:20:30;1.65;;;1.48;;
45944;SDS011;31655;48.972;10.686;2023-05-10T09:22:56;6.50;;;2.33;;
45944;SDS011;31655;48.972;10.686;2023-05-10T09:25:22;1.17;;;1.05;;
45944;SDS011;31655;48.972;10.686;2023-05-10T09:27:48;2.63;;;1.20;;
45944;SDS011;31655;48.972;10.686;2023-05-10T09:30:27;1.50;;;0.90;;
45944;SDS011;31655;48.972;10.686;2023-05-10T09:32:54;0.90;;;0.73;;
45944;SDS011;31655;48.972;10.686;2023-05-10T09:35:22;1.25;;;0.90;;
45944;SDS011;31655;48.972;10.686;2023-05-10T09:37:54;2.22;;;1.13;;
45944;SDS011;31655;48.972;10.686;2023-05-10T09:40:21;2.22;;;1.25;;
45944;SDS011;31655;48.972;10.686;2023-05-10T09:42:53;1.40;;;1.08;;
45944;SDS011;31655;48.972;10.686;2023-05-10T09:45:30;1.23;;;1.10;;
45944;SDS011;31655;48.972;10.686;2023-05-10T09:47:56;5.00;;;1.38;;
45944;SDS011;31655;48.972;10.686;2023-05-10T09:50:23;4.25;;;1.20;;
45944;SDS011;31655;48.972;10.686;2023-05-10T09:52:52;2.20;;;1.02;;
45944;SDS011;31655;48.972;10.686;2023-05-10T09:55:21;3.22;;;1.20;;
45944;SDS011;31655;48.972;10.686;2023-05-10T09:57:48;2.65;;;1.35;;
45944;SDS011;31655;48.972;10.686;2023-05-10T10:00:22;1.02;;;0.98;;
45944;SDS011;31655;48.972;10.686;2023-05-10T10:02:58;2.33;;;1.33;;
45944;SDS011;31655;48.972;10.686;2023-05-10T10:05:28;2.65;;;0.98;;
45944;SDS011;31655;48.972;10.686;2023-05-10T10:07:55;3.10;;;1.13;;
45944;SDS011;31655;48.972;10.686;2023-05-10T10:10:22;1.45;;;1.23;;
45944;SDS011;31655;48.972;10.686;2023-05-10T10:12:48;2.40;;;1.48;;
45944;SDS011;31655;48.972;10.686;2023-05-10T10:15:14;0.90;;;0.90;;
45944;SDS011;31655;48.972;10.686;2023-05-10T10:17:40;1.42;;;1.10;;
45944;SDS011;31655;48.972;10.686;2023-05-10T10:20:07;2.65;;;0.80;;
45944;SDS011;31655;48.972;10.686;2023-05-10T10:22:33;1.85;;;0.90;;
45944;SDS011;31655;48.972;10.686;2023-05-10T10:24:59;0.70;;;0.70;;
45944;SDS011;31655;48.972;10.686;2023-05-10T10:27:31;1.17;;;0.75;;
45944;SDS011;31655;48.972;10.686;2023-05-10T10:35:28;0.80;;;0.70;;
45944;SDS011;31655;48.972;10.686;2023-05-10T10:37:55;1.33;;;0.85;;
45944;SDS011;31655;48.972;10.686;2023-05-10T10:40:28;3.03;;;1.30;;
45944;SDS011;31655;48.972;10.686;2023-05-10T10:42:55;0.98;;;0.88;;
45944;SDS011;31655;48.972;10.686;2023-05-10T10:45:21;2.08;;;1.40;;
45944;SDS011;31655;48.972;10.686;2023-05-10T10:47:48;1.30;;;1.20;;
45944;SDS011;31655;48.972;10.686;2023-05-10T10:50:14;1.67;;;0.82;;
45944;SDS011;31655;48.972;10.686;2023-05-10T10:52:43;2.92;;;0.93;;
45944;SDS011;31655;48.972;10.686;2023-05-10T10:55:13;3.58;;;1.40;;
45944;SDS011;31655;48.972;10.686;2023-05-10T10:57:54;2.47;;;1.20;;
45944;SDS011;31655;48.972;10.686;2023-05-10T11:03:08;1.42;;;1.23;;
45944;SDS011;31655;48.972;10.686;2023-05-10T11:11:08;3.20;;;1.17;;
45944;SDS011;31655;48.972;10.686;2023-05-10T11:13:39;1.20;;;0.93;;
45944;SDS011;31655;48.972;10.686;2023-05-10T11:16:18;2.30;;;1.40;;
45944;SDS011;31655;48.972;10.686;2023-05-10T11:21:27;2.08;;;0.90;;
45944;SDS011;31655;48.972;10.686;2023-05-10T11:23:54;1.50;;;1.38;;
45944;SDS011;31655;48.972;10.686;2023-05-10T11:26:21;1.45;;;1.30;;
45944;SDS011;31655;48.972;10.686;2023-05-10T11:28:50;4.07;;;1.45;;
45944;SDS011;31655;48.972;10.686;2023-05-10T11:31:16;1.45;;;1.20;;
45944;SDS011;31655;48.972;10.686;2023-05-10T11:33:43;1.00;;;0.90;;
45944;SDS011;31655;48.972;10.686;2023-05-10T11:36:14;2.28;;;0.70;;
45944;SDS011;31655;48.972;10.686;2023-05-10T11:38:41;0.70;;;0.60;;
45944;SDS011;31655;48.972;10.686;2023-05-10T11:41:10;2.30;;;1.05;;
45944;SDS011;31655;48.972;10.686;2023-05-10T11:43:38;2.80;;;1.13;;
45944;SDS011;31655;48.972;10.686;2023-05-10T11:46:05;2.97;;;0.90;;
45944;SDS011;31655;48.972;10.686;2023-05-10T11:48:32;0.88;;;0.68;;
45944;SDS011;31655;48.972;10.686;2023-05-10T11:50:58;2.95;;;0.60;;
45944;SDS011;31655;48.972;10.686;2023-05-10T11:53:26;1.63;;;0.70;;
45944;SDS011;31655;48.972;10.686;2023-05-10T11:55:52;2.08;;;0.88;;
45944;SDS011;31655;48.972;10.686;2023-05-10T11:58:18;1.23;;;1.00;;
45944;SDS011;31655;48.972;10.686;2023-05-10T12:00:46;1.10;;;1.00;;
45944;SDS011;31655;48.972;10.686;2023-05-10T12:03:12;3.67;;;1.85;;
45944;SDS011;31655;48.972;10.686;2023-05-10T12:05:38;1.90;;;0.45;;
45944;SDS011;31655;48.972;10.686;2023-05-10T12:08:19;1.30;;;0.82;;
45944;SDS011;31655;48.972;10.686;2023-05-10T12:10:46;2.72;;;0.50;;
45944;SDS011;31655;48.972;10.686;2023-05-10T12:13:13;4.35;;;0.68;;
45944;SDS011;31655;48.972;10.686;2023-05-10T12:15:39;2.15;;;0.60;;
45944;SDS011;31655;48.972;10.686;2023-05-10T12:18:05;1.67;;;0.90;;
45944;SDS011;31655;48.972;10.686;2023-05-10T12:20:31;1.73;;;0.90;;
45944;SDS011;31655;48.972;10.686;2023-05-10T12:22:57;11.50;;;1.15;;
45944;SDS011;31655;48.972;10.686;2023-05-10T12:25:24;1.38;;;0.82;;
45944;SDS011;31655;48.972;10.686;2023-05-10T12:27:56;0.55;;;0.55;;
45944;SDS011;31655;48.972;10.686;2023-05-10T12:32:49;2.85;;;0.60;;
45944;SDS011;31655;48.972;10.686;2023-05-10T12:35:15;1.80;;;0.98;;
45944;SDS011;31655;48.972;10.686;2023-05-10T12:37:44;2.45;;;1.23;;
45944;SDS011;31655;48.972;10.686;2023-05-10T12:40:11;2.30;;;1.88;;
45944;SDS011;31655;48.972;10.686;2023-05-10T12:42:37;1.40;;;1.17;;
45944;SDS011;31655;48.972;10.686;2023-05-10T12:45:05;2.42;;;1.10;;
45944;SDS011;31655;48.972;10.686;2023-05-10T12:47:32;0.98;;;0.90;;
45944;SDS011;31655;48.972;10.686;2023-05-10T12:49:58;2.40;;;1.05;;
45944;SDS011;31655;48.972;10.686;2023-05-10T12:52:24;1.00;;;0.98;;
45944;SDS011;31655;48.972;10.686;2023-05-10T12:54:50;2.40;;;0.95;;
45944;SDS011;31655;48.972;10.686;2023-05-10T12:57:17;2.38;;;0.80;;
45944;SDS011;31655;48.972;10.686;2023-05-10T12:59:42;1.75;;;1.30;;
45944;SDS011;31655;48.972;10.686;2023-05-10T13:02:08;1.20;;;1.10;;
45944;SDS011;31655;48.972;10.686;2023-05-10T13:04:34;1.75;;;1.65;;
45944;SDS011;31655;48.972;10.686;2023-05-10T13:07:04;2.83;;;1.90;;
45944;SDS011;31655;48.972;10.686;2023-05-10T13:09:30;2.65;;;2.05;;
45944;SDS011;31655;48.972;10.686;2023-05-10T13:11:56;1.80;;;1.70;;
45944;SDS011;31655;48.972;10.686;2023-05-10T13:14:22;2.30;;;1.92;;
45944;SDS011;31655;48.972;10.686;2023-05-10T13:16:48;2.35;;;2.15;;
45944;SDS011;31655;48.972;10.686;2023-05-10T13:19:14;6.22;;;2.38;;
45944;SDS011;31655;48.972;10.686;2023-05-10T13:21:40;3.60;;;1.83;;
45944;SDS011;31655;48.972;10.686;2023-05-10T13:24:06;2.25;;;1.70;;
45944;SDS011;31655;48.972;10.686;2023-05-10T13:26:32;3.55;;;2.35;;
45944;SDS011;31655;48.972;10.686;2023-05-10T13:28:58;4.22;;;2.25;;
45944;SDS011;31655;48.972;10.686;2023-05-10T13:31:24;2.40;;;2.00;;
45944;SDS011;31655;48.972;10.686;2023-05-10T13:33:50;3.22;;;1.75;;
45944;SDS011;31655;48.972;10.686;2023-05-10T13:36:16;2.17;;;1.85;;
45944;SDS011;31655;48.972;10.686;2023-05-10T13:38:42;2.05;;;1.92;;
45944;SDS011;31655;48.972;10.686;2023-05-10T13:41:08;6.40;;;1.80;;
45944;SDS011;31655;48.972;10.686;2023-05-10T13:43:33;4.57;;;1.67;;
45944;SDS011;31655;48.972;10.686;2023-05-10T13:46:00;2.75;;;1.30;;
45944;SDS011;31655;48.972;10.686;2023-05-10T13:48:27;2.05;;;1.42;;
45944;SDS011;31655;48.972;10.686;2023-05-10T13:50:53;3.15;;;0.95;;
45944;SDS011;31655;48.972;10.686;2023-05-10T13:53:19;0.82;;;0.82;;
45944;SDS011;31655;48.972;10.686;2023-05-10T13:55:46;1.48;;;1.00;;
45944;SDS011;31655;48.972;10.686;2023-05-10T13:58:12;1.33;;;0.93;;
45944;SDS011;31655;48.972;10.686;2023-05-10T14:00:38;2.58;;;0.80;;
45944;SDS011;31655;48.972;10.686;2023-05-10T14:03:04;0.95;;;0.88;;
45944;SDS011;31655;48.972;10.686;2023-05-10T14:05:31;0.95;;;0.82;;
45944;SDS011;31655;48.972;10.686;2023-05-10T14:07:57;0.70;;;0.70;;
45944;SDS011;31655;48.972;10.686;2023-05-10T14:10:23;1.88;;;0.80;;
45944;SDS011;31655;48.972;10.686;2023-05-10T14:12:49;3.10;;;0.95;;
45944;SDS011;31655;48.972;10.686;2023-05-10T14:15:15;1.45;;;0.65;;
45944;SDS011;31655;48.972;10.686;2023-05-10T14:17:41;1.17;;;0.93;;
45944;SDS011;31655;48.972;10.686;2023-05-10T14:20:07;3.20;;;0.90;;
45944;SDS011;31655;48.972;10.686;2023-05-10T14:22:33;1.10;;;1.00;;
45944;SDS011;31655;48.972;10.686;2023-05-10T14:24:59;2.30;;;1.00;;
45944;SDS011;31655;48.972;10.686;2023-05-10T14:27:25;0.82;;;0.70;;
45944;SDS011;31655;48.972;10.686;2023-05-10T14:29:51;2.30;;;1.10;;
45944;SDS011;31655;48.972;10.686;2023-05-10T14:32:18;3.10;;;1.00;;
45944;SDS011;31655;48.972;10.686;2023-05-10T14:34:44;2.92;;;1.08;;
45944;SDS011;31655;48.972;10.686;2023-05-10T14:37:10;1.25;;;0.82;;
45944;SDS011;31655;48.972;10.686;2023-05-10T14:39:36;1.42;;;1.30;;
45944;SDS011;31655;48.972;10.686;2023-05-10T14:42:02;1.52;;;1.00;;
45944;SDS011;31655;48.972;10.686;2023-05-10T14:44:28;0.90;;;0.57;;
45944;SDS011;31655;48.972;10.686;2023-05-10T14:46:55;2.80;;;1.60;;
45944;SDS011;31655;48.972;10.686;2023-05-10T14:49:21;5.75;;;1.55;;
45944;SDS011;31655;48.972;10.686;2023-05-10T14:51:49;0.75;;;0.70;;
45944;SDS011;31655;48.972;10.686;2023-05-10T14:54:15;2.67;;;2.08;;
45944;SDS011;31655;48.972;10.686;2023-05-10T14:56:41;1.33;;;1.23;;
45944;SDS011;31655;48.972;10.686;2023-05-10T14:59:07;2.35;;;0.70;;
45944;SDS011;31655;48.972;10.686;2023-05-10T15:01:33;1.23;;;0.90;;
45944;SDS011;31655;48.972;10.686;2023-05-10T15:04:02;1.98;;;0.70;;
45944;SDS011;31655;48.972;10.686;2023-05-10T15:06:32;1.98;;;0.95;;